Sunday, September 23, 2018, 12:32 AM EDT
Back to Local

KDOV, Dover Air Force Base

Location: Dover, DE, United States Lat: 39.133
Local Time: 12:32 AM EDT ( 4:32 GMT) Lon: -75.467
Time Zone: US/Eastern Elev: 29 ft

Show me the last for .
Show Decoded

2018-09-22 22:56 METAR KDOV 230256Z AUTO 01005KT 10SM OVC042 17/14 A3018 RMK AO2 SLP223 T01740141
                 51007 $ =
2018-09-22 21:56 METAR KDOV 230156Z AUTO 34006KT 10SM FEW110 17/13 A3018 RMK AO2 SLP223 T01690130
                 $ =
2018-09-22 20:56 METAR KDOV 230056Z AUTO 01005KT 10SM BKN095 18/13 A3018 RMK AO2 SLP223 T01750130
                 $ =
2018-09-22 19:56 METAR KDOV 222356Z AUTO 35008KT 10SM BKN041 18/13 A3016 RMK AO2 SLP216 T01750130
                 10260 20175 51016 $ =
2018-09-22 18:56 METAR KDOV 222256Z AUTO 35010KT 10SM FEW100 18/13 A3016 RMK AO2 SLP216 T01840126
                 $ =
2018-09-22 17:56 METAR KDOV 222156Z AUTO 36012KT 10SM BKN110 OVC130 21/14 A3014 RMK AO2 SLP209
                 T02060140 $ =
2018-09-22 16:56 METAR KDOV 222056Z AUTO 34013KT 10SM BKN110 BKN130 23/14 A3012 RMK AO2 SLP203
                 T02280144 53003 $ =
2018-09-22 15:56 METAR KDOV 221956Z AUTO 35011KT 10SM BKN100 23/14 A3012 RMK AO2 SLP203 T02280144
                 $ =
2018-09-22 10:56 METAR KDOV 221456Z AUTO 33013KT 10SM FEW025 25/20 A3010 RMK AO2 SLP196 T02500196
                 52012 $ =
2018-09-22 09:56 METAR KDOV 221356Z AUTO 33013KT 10SM SCT110 25/20 A3009 RMK AO2 RAB10E21 SLP192
                 T02450200 $ =
2018-09-22 09:21 METAR KDOV 221321Z AUTO 32009KT 10SM BKN110 24/21 A3007 RMK AO2 RAB10E21 SLP186
                 $ =
2018-09-22 09:17 METAR KDOV 221317Z AUTO 32009KT 10SM -RA BKN110 24/21 A3007 RMK AO2 RAB10 SLP186
                 $ =
2018-09-22 09:10 METAR KDOV 221310Z COR AUTO 31009KT 10SM BKN110 24/21 A3007 RMK AO2 SLP186 $ COR
                 1314 =
2018-09-22 08:56 METAR KDOV 221256Z COR AUTO 29008KT 10SM SCT110 24/22 A3007 RMK AO2 SLP186
                 T02370216 $ COR 1258 =
2018-09-22 08:55 METAR KDOV 221255Z AUTO 29008KT 10SM SCT110 24/22 A3007 RMK AO2
                 RAB15E24RAB38E50DZB50E55 SLP186 $ =
2018-09-22 02:56 METAR KDOV 220656Z AUTO 20012KT 10SM FEW080 SCT120 23/21 A3000 RMK AO2 SLP162
                 T02250206 $ =

Support USWX by starting your Amazon purchase here.